sensor_id;sensor_type;location;lat;lon;timestamp;P1;durP1;ratioP1;P2;durP2;ratioP2
31482;SDS011;18103;52.246;8.052;2022-10-26T00:02:12;10.03;;;2.93;;
31482;SDS011;18103;52.246;8.052;2022-10-26T00:04:38;5.70;;;2.70;;
31482;SDS011;18103;52.246;8.052;2022-10-26T00:07:03;7.17;;;2.77;;
31482;SDS011;18103;52.246;8.052;2022-10-26T00:09:29;10.30;;;2.33;;
31482;SDS011;18103;52.246;8.052;2022-10-26T00:11:57;4.50;;;2.67;;
31482;SDS011;18103;52.246;8.052;2022-10-26T00:14:23;12.00;;;2.53;;
31482;SDS011;18103;52.246;8.052;2022-10-26T00:16:48;3.67;;;2.27;;
31482;SDS011;18103;52.246;8.052;2022-10-26T00:19:13;4.87;;;2.10;;
31482;SDS011;18103;52.246;8.052;2022-10-26T00:21:39;8.33;;;2.23;;
31482;SDS011;18103;52.246;8.052;2022-10-26T00:24:04;7.63;;;1.87;;
31482;SDS011;18103;52.246;8.052;2022-10-26T00:26:30;3.77;;;1.67;;
31482;SDS011;18103;52.246;8.052;2022-10-26T00:28:55;2.63;;;1.70;;
31482;SDS011;18103;52.246;8.052;2022-10-26T00:31:21;7.83;;;1.77;;
31482;SDS011;18103;52.246;8.052;2022-10-26T00:33:50;5.57;;;1.73;;
31482;SDS011;18103;52.246;8.052;2022-10-26T00:36:17;10.93;;;1.77;;
31482;SDS011;18103;52.246;8.052;2022-10-26T00:38:47;5.43;;;1.77;;
31482;SDS011;18103;52.246;8.052;2022-10-26T00:41:14;5.70;;;2.03;;
31482;SDS011;18103;52.246;8.052;2022-10-26T00:43:40;5.90;;;1.97;;
31482;SDS011;18103;52.246;8.052;2022-10-26T00:46:07;3.87;;;1.77;;
31482;SDS011;18103;52.246;8.052;2022-10-26T00:48:43;6.93;;;1.80;;
31482;SDS011;18103;52.246;8.052;2022-10-26T00:51:13;7.90;;;1.80;;
31482;SDS011;18103;52.246;8.052;2022-10-26T00:53:43;2.13;;;1.60;;
31482;SDS011;18103;52.246;8.052;2022-10-26T00:56:09;9.13;;;1.47;;
31482;SDS011;18103;52.246;8.052;2022-10-26T00:58:35;11.33;;;1.83;;
31482;SDS011;18103;52.246;8.052;2022-10-26T01:01:01;6.10;;;1.30;;
31482;SDS011;18103;52.246;8.052;2022-10-26T01:03:27;10.27;;;1.70;;
31482;SDS011;18103;52.246;8.052;2022-10-26T01:05:54;3.50;;;1.23;;
31482;SDS011;18103;52.246;8.052;2022-10-26T01:08:21;8.73;;;1.30;;
31482;SDS011;18103;52.246;8.052;2022-10-26T01:10:48;4.60;;;1.70;;
31482;SDS011;18103;52.246;8.052;2022-10-26T01:13:13;2.70;;;1.47;;
31482;SDS011;18103;52.246;8.052;2022-10-26T01:16:02;5.10;;;1.50;;
31482;SDS011;18103;52.246;8.052;2022-10-26T01:18:51;3.27;;;1.40;;
31482;SDS011;18103;52.246;8.052;2022-10-26T01:32:03;4.10;;;1.70;;
31482;SDS011;18103;52.246;8.052;2022-10-26T01:34:42;5.50;;;1.33;;
31482;SDS011;18103;52.246;8.052;2022-10-26T01:37:14;9.97;;;2.00;;
31482;SDS011;18103;52.246;8.052;2022-10-26T01:39:53;3.83;;;2.10;;
31482;SDS011;18103;52.246;8.052;2022-10-26T01:42:26;1.73;;;1.30;;
31482;SDS011;18103;52.246;8.052;2022-10-26T01:44:58;4.47;;;1.90;;
31482;SDS011;18103;52.246;8.052;2022-10-26T01:47:27;8.30;;;1.90;;
31482;SDS011;18103;52.246;8.052;2022-10-26T01:49:55;5.03;;;1.60;;
31482;SDS011;18103;52.246;8.052;2022-10-26T01:52:23;3.33;;;1.50;;
31482;SDS011;18103;52.246;8.052;2022-10-26T01:54:49;4.77;;;1.53;;
31482;SDS011;18103;52.246;8.052;2022-10-26T01:57:15;8.60;;;1.90;;
31482;SDS011;18103;52.246;8.052;2022-10-26T02:11:25;2.30;;;1.50;;
31482;SDS011;18103;52.246;8.052;2022-10-26T02:17:03;5.57;;;2.20;;
31482;SDS011;18103;52.246;8.052;2022-10-26T02:19:44;5.67;;;2.17;;
31482;SDS011;18103;52.246;8.052;2022-10-26T02:22:20;8.33;;;2.30;;
31482;SDS011;18103;52.246;8.052;2022-10-26T02:24:51;5.27;;;2.47;;
31482;SDS011;18103;52.246;8.052;2022-10-26T02:27:28;4.43;;;2.73;;
31482;SDS011;18103;52.246;8.052;2022-10-26T02:29:58;7.77;;;2.10;;
31482;SDS011;18103;52.246;8.052;2022-10-26T02:32:27;7.20;;;2.07;;
31482;SDS011;18103;52.246;8.052;2022-10-26T02:34:58;4.57;;;2.40;;
31482;SDS011;18103;52.246;8.052;2022-10-26T02:37:26;4.60;;;2.40;;
31482;SDS011;18103;52.246;8.052;2022-10-26T02:39:57;6.67;;;2.47;;
31482;SDS011;18103;52.246;8.052;2022-10-26T02:42:29;5.73;;;3.10;;
31482;SDS011;18103;52.246;8.052;2022-10-26T02:45:05;6.00;;;2.30;;
31482;SDS011;18103;52.246;8.052;2022-10-26T02:47:34;7.93;;;2.13;;
31482;SDS011;18103;52.246;8.052;2022-10-26T02:50:00;4.17;;;1.90;;
31482;SDS011;18103;52.246;8.052;2022-10-26T02:52:32;5.10;;;2.67;;
31482;SDS011;18103;52.246;8.052;2022-10-26T02:55:07;5.20;;;2.60;;
31482;SDS011;18103;52.246;8.052;2022-10-26T02:57:39;5.33;;;2.40;;
31482;SDS011;18103;52.246;8.052;2022-10-26T03:00:09;3.90;;;2.30;;
31482;SDS011;18103;52.246;8.052;2022-10-26T03:02:38;4.23;;;2.20;;
31482;SDS011;18103;52.246;8.052;2022-10-26T03:05:13;5.10;;;2.23;;
31482;SDS011;18103;52.246;8.052;2022-10-26T03:07:43;2.87;;;2.10;;
31482;SDS011;18103;52.246;8.052;2022-10-26T03:10:09;6.67;;;2.37;;
31482;SDS011;18103;52.246;8.052;2022-10-26T03:12:34;4.20;;;2.23;;
31482;SDS011;18103;52.246;8.052;2022-10-26T03:15:00;5.87;;;2.87;;
31482;SDS011;18103;52.246;8.052;2022-10-26T03:17:25;6.30;;;2.50;;
31482;SDS011;18103;52.246;8.052;2022-10-26T03:19:50;6.00;;;2.40;;
31482;SDS011;18103;52.246;8.052;2022-10-26T03:22:16;5.27;;;2.30;;
31482;SDS011;18103;52.246;8.052;2022-10-26T03:24:41;6.27;;;2.57;;
31482;SDS011;18103;52.246;8.052;2022-10-26T03:27:06;5.77;;;3.07;;
31482;SDS011;18103;52.246;8.052;2022-10-26T03:29:35;3.77;;;2.20;;
31482;SDS011;18103;52.246;8.052;2022-10-26T03:32:00;7.43;;;2.43;;
31482;SDS011;18103;52.246;8.052;2022-10-26T03:34:26;5.00;;;2.53;;
31482;SDS011;18103;52.246;8.052;2022-10-26T03:36:51;6.10;;;2.90;;
31482;SDS011;18103;52.246;8.052;2022-10-26T03:39:16;4.97;;;2.93;;
31482;SDS011;18103;52.246;8.052;2022-10-26T03:41:42;7.43;;;2.63;;
31482;SDS011;18103;52.246;8.052;2022-10-26T03:44:08;7.37;;;3.07;;
31482;SDS011;18103;52.246;8.052;2022-10-26T03:46:33;4.83;;;2.63;;
31482;SDS011;18103;52.246;8.052;2022-10-26T03:48:58;5.37;;;3.13;;
31482;SDS011;18103;52.246;8.052;2022-10-26T03:51:24;7.50;;;2.93;;
31482;SDS011;18103;52.246;8.052;2022-10-26T03:53:52;6.27;;;3.00;;
31482;SDS011;18103;52.246;8.052;2022-10-26T03:56:18;4.10;;;2.97;;
31482;SDS011;18103;52.246;8.052;2022-10-26T03:58:43;7.30;;;3.33;;
31482;SDS011;18103;52.246;8.052;2022-10-26T04:01:08;9.53;;;3.77;;
31482;SDS011;18103;52.246;8.052;2022-10-26T04:03:34;6.40;;;3.90;;
31482;SDS011;18103;52.246;8.052;2022-10-26T04:06:00;11.40;;;3.37;;
31482;SDS011;18103;52.246;8.052;2022-10-26T04:08:25;8.77;;;4.03;;
31482;SDS011;18103;52.246;8.052;2022-10-26T04:10:57;10.27;;;4.10;;
31482;SDS011;18103;52.246;8.052;2022-10-26T04:13:22;8.30;;;5.10;;
31482;SDS011;18103;52.246;8.052;2022-10-26T04:15:48;10.40;;;4.73;;
31482;SDS011;18103;52.246;8.052;2022-10-26T04:18:13;7.60;;;4.17;;
31482;SDS011;18103;52.246;8.052;2022-10-26T04:20:39;7.87;;;4.43;;
31482;SDS011;18103;52.246;8.052;2022-10-26T04:23:11;9.27;;;5.23;;
31482;SDS011;18103;52.246;8.052;2022-10-26T04:25:42;9.80;;;4.23;;
31482;SDS011;18103;52.246;8.052;2022-10-26T04:28:08;14.17;;;4.70;;
31482;SDS011;18103;52.246;8.052;2022-10-26T04:30:34;9.40;;;4.70;;
31482;SDS011;18103;52.246;8.052;2022-10-26T04:33:01;17.77;;;4.63;;
31482;SDS011;18103;52.246;8.052;2022-10-26T04:35:27;10.37;;;4.53;;
31482;SDS011;18103;52.246;8.052;2022-10-26T04:37:56;6.10;;;3.87;;
31482;SDS011;18103;52.246;8.052;2022-10-26T04:40:23;6.87;;;3.77;;
31482;SDS011;18103;52.246;8.052;2022-10-26T04:42:49;11.43;;;4.40;;
31482;SDS011;18103;52.246;8.052;2022-10-26T04:45:14;8.07;;;4.17;;
31482;SDS011;18103;52.246;8.052;2022-10-26T04:47:40;7.67;;;4.10;;
31482;SDS011;18103;52.246;8.052;2022-10-26T04:50:07;20.97;;;5.00;;
31482;SDS011;18103;52.246;8.052;2022-10-26T04:52:33;6.43;;;4.20;;
31482;SDS011;18103;52.246;8.052;2022-10-26T04:54:59;16.27;;;4.13;;
31482;SDS011;18103;52.246;8.052;2022-10-26T04:57:24;7.60;;;4.07;;
31482;SDS011;18103;52.246;8.052;2022-10-26T04:59:50;6.47;;;3.67;;
31482;SDS011;18103;52.246;8.052;2022-10-26T05:02:15;13.70;;;3.90;;
31482;SDS011;18103;52.246;8.052;2022-10-26T05:04:40;11.37;;;4.43;;
31482;SDS011;18103;52.246;8.052;2022-10-26T05:07:06;11.10;;;4.13;;
31482;SDS011;18103;52.246;8.052;2022-10-26T05:09:31;6.27;;;4.00;;
31482;SDS011;18103;52.246;8.052;2022-10-26T05:11:56;11.03;;;4.60;;
31482;SDS011;18103;52.246;8.052;2022-10-26T05:14:22;5.93;;;4.03;;
31482;SDS011;18103;52.246;8.052;2022-10-26T05:16:49;10.73;;;4.40;;
31482;SDS011;18103;52.246;8.052;2022-10-26T05:19:15;10.27;;;4.07;;
31482;SDS011;18103;52.246;8.052;2022-10-26T05:21:40;10.17;;;4.03;;
31482;SDS011;18103;52.246;8.052;2022-10-26T05:24:05;17.43;;;4.63;;
31482;SDS011;18103;52.246;8.052;2022-10-26T05:26:31;6.57;;;4.00;;
31482;SDS011;18103;52.246;8.052;2022-10-26T05:28:56;8.07;;;3.93;;
31482;SDS011;18103;52.246;8.052;2022-10-26T05:31:22;10.10;;;4.20;;
31482;SDS011;18103;52.246;8.052;2022-10-26T05:33:47;8.07;;;3.80;;
31482;SDS011;18103;52.246;8.052;2022-10-26T05:36:18;8.00;;;4.27;;
31482;SDS011;18103;52.246;8.052;2022-10-26T05:38:44;13.40;;;4.40;;
31482;SDS011;18103;52.246;8.052;2022-10-26T05:41:10;13.37;;;5.07;;
31482;SDS011;18103;52.246;8.052;2022-10-26T05:43:35;7.73;;;4.30;;
31482;SDS011;18103;52.246;8.052;2022-10-26T05:46:01;9.07;;;4.27;;
31482;SDS011;18103;52.246;8.052;2022-10-26T05:48:26;5.83;;;3.83;;
31482;SDS011;18103;52.246;8.052;2022-10-26T05:50:51;8.93;;;4.70;;
31482;SDS011;18103;52.246;8.052;2022-10-26T05:53:17;11.33;;;4.60;;
31482;SDS011;18103;52.246;8.052;2022-10-26T05:55:43;7.83;;;4.20;;
31482;SDS011;18103;52.246;8.052;2022-10-26T05:58:10;8.20;;;3.93;;
31482;SDS011;18103;52.246;8.052;2022-10-26T06:00:36;7.83;;;3.90;;
31482;SDS011;18103;52.246;8.052;2022-10-26T06:05:56;6.83;;;3.97;;
31482;SDS011;18103;52.246;8.052;2022-10-26T06:08:24;9.07;;;4.13;;
31482;SDS011;18103;52.246;8.052;2022-10-26T06:10:51;9.73;;;4.30;;
31482;SDS011;18103;52.246;8.052;2022-10-26T06:13:18;7.67;;;4.07;;
31482;SDS011;18103;52.246;8.052;2022-10-26T06:18:34;5.63;;;3.47;;
31482;SDS011;18103;52.246;8.052;2022-10-26T06:23:57;9.10;;;4.53;;
31482;SDS011;18103;52.246;8.052;2022-10-26T06:26:34;9.13;;;4.00;;
31482;SDS011;18103;52.246;8.052;2022-10-26T06:29:44;5.90;;;4.00;;
31482;SDS011;18103;52.246;8.052;2022-10-26T06:32:15;6.47;;;3.80;;
31482;SDS011;18103;52.246;8.052;2022-10-26T06:34:45;8.13;;;3.93;;
31482;SDS011;18103;52.246;8.052;2022-10-26T06:37:14;11.03;;;3.47;;
31482;SDS011;18103;52.246;8.052;2022-10-26T06:39:42;5.17;;;3.57;;
31482;SDS011;18103;52.246;8.052;2022-10-26T06:42:11;19.43;;;3.90;;
31482;SDS011;18103;52.246;8.052;2022-10-26T06:44:36;8.30;;;4.27;;
31482;SDS011;18103;52.246;8.052;2022-10-26T06:47:06;7.57;;;3.67;;
31482;SDS011;18103;52.246;8.052;2022-10-26T06:49:39;4.97;;;3.63;;
31482;SDS011;18103;52.246;8.052;2022-10-26T06:52:20;9.90;;;3.40;;
31482;SDS011;18103;52.246;8.052;2022-10-26T06:54:50;7.93;;;2.90;;
31482;SDS011;18103;52.246;8.052;2022-10-26T06:57:18;9.30;;;3.47;;
31482;SDS011;18103;52.246;8.052;2022-10-26T07:02:28;6.30;;;3.73;;
31482;SDS011;18103;52.246;8.052;2022-10-26T07:04:53;9.27;;;3.43;;
31482;SDS011;18103;52.246;8.052;2022-10-26T07:07:22;4.53;;;3.30;;
31482;SDS011;18103;52.246;8.052;2022-10-26T07:09:50;12.47;;;3.80;;
31482;SDS011;18103;52.246;8.052;2022-10-26T07:12:15;8.97;;;3.80;;
31482;SDS011;18103;52.246;8.052;2022-10-26T07:14:41;9.97;;;4.37;;
31482;SDS011;18103;52.246;8.052;2022-10-26T07:17:07;8.73;;;3.97;;
31482;SDS011;18103;52.246;8.052;2022-10-26T07:19:33;12.37;;;3.80;;
31482;SDS011;18103;52.246;8.052;2022-10-26T07:22:01;7.93;;;4.00;;
31482;SDS011;18103;52.246;8.052;2022-10-26T07:24:27;8.37;;;4.80;;
31482;SDS011;18103;52.246;8.052;2022-10-26T07:26:53;7.77;;;4.03;;
31482;SDS011;18103;52.246;8.052;2022-10-26T07:29:20;7.37;;;4.53;;
31482;SDS011;18103;52.246;8.052;2022-10-26T07:31:47;9.10;;;4.80;;
31482;SDS011;18103;52.246;8.052;2022-10-26T07:34:12;16.83;;;4.13;;
31482;SDS011;18103;52.246;8.052;2022-10-26T07:36:38;12.83;;;4.40;;
31482;SDS011;18103;52.246;8.052;2022-10-26T07:39:03;7.67;;;4.47;;
31482;SDS011;18103;52.246;8.052;2022-10-26T07:41:29;13.80;;;4.13;;
31482;SDS011;18103;52.246;8.052;2022-10-26T07:43:54;8.80;;;3.97;;
31482;SDS011;18103;52.246;8.052;2022-10-26T07:46:20;12.10;;;4.60;;
31482;SDS011;18103;52.246;8.052;2022-10-26T07:48:45;11.33;;;5.20;;
31482;SDS011;18103;52.246;8.052;2022-10-26T07:51:10;8.60;;;4.40;;
31482;SDS011;18103;52.246;8.052;2022-10-26T07:53:36;8.60;;;4.00;;
31482;SDS011;18103;52.246;8.052;2022-10-26T07:56:01;7.10;;;3.93;;
31482;SDS011;18103;52.246;8.052;2022-10-26T07:58:26;10.53;;;4.13;;
31482;SDS011;18103;52.246;8.052;2022-10-26T08:00:52;13.03;;;4.40;;
31482;SDS011;18103;52.246;8.052;2022-10-26T08:03:21;6.17;;;4.17;;
31482;SDS011;18103;52.246;8.052;2022-10-26T08:05:47;9.33;;;4.07;;
31482;SDS011;18103;52.246;8.052;2022-10-26T08:08:18;10.93;;;5.00;;
31482;SDS011;18103;52.246;8.052;2022-10-26T08:10:44;8.97;;;3.37;;
31482;SDS011;18103;52.246;8.052;2022-10-26T08:13:10;7.00;;;3.87;;
31482;SDS011;18103;52.246;8.052;2022-10-26T08:15:36;8.40;;;3.83;;
31482;SDS011;18103;52.246;8.052;2022-10-26T08:18:02;7.53;;;3.60;;
31482;SDS011;18103;52.246;8.052;2022-10-26T08:20:28;6.80;;;4.03;;
31482;SDS011;18103;52.246;8.052;2022-10-26T08:22:57;6.03;;;3.50;;
31482;SDS011;18103;52.246;8.052;2022-10-26T08:25:24;7.73;;;3.10;;
31482;SDS011;18103;52.246;8.052;2022-10-26T08:27:50;9.33;;;3.30;;
31482;SDS011;18103;52.246;8.052;2022-10-26T08:30:15;9.30;;;3.17;;
31482;SDS011;18103;52.246;8.052;2022-10-26T08:32:40;5.77;;;2.80;;
31482;SDS011;18103;52.246;8.052;2022-10-26T08:35:09;6.93;;;3.13;;
31482;SDS011;18103;52.246;8.052;2022-10-26T08:37:34;13.40;;;3.10;;
31482;SDS011;18103;52.246;8.052;2022-10-26T08:40:00;4.17;;;2.93;;
31482;SDS011;18103;52.246;8.052;2022-10-26T08:42:30;8.30;;;2.63;;
31482;SDS011;18103;52.246;8.052;2022-10-26T08:45:08;5.53;;;2.83;;
31482;SDS011;18103;52.246;8.052;2022-10-26T08:47:43;4.60;;;2.83;;
31482;SDS011;18103;52.246;8.052;2022-10-26T08:50:18;6.00;;;2.70;;
31482;SDS011;18103;52.246;8.052;2022-10-26T08:55:17;5.83;;;2.33;;
31482;SDS011;18103;52.246;8.052;2022-10-26T08:57:45;7.60;;;2.40;;
31482;SDS011;18103;52.246;8.052;2022-10-26T09:00:20;3.10;;;2.27;;
31482;SDS011;18103;52.246;8.052;2022-10-26T09:02:50;5.57;;;2.57;;
31482;SDS011;18103;52.246;8.052;2022-10-26T09:05:23;8.77;;;2.60;;
31482;SDS011;18103;52.246;8.052;2022-10-26T09:11:02;11.50;;;3.80;;
31482;SDS011;18103;52.246;8.052;2022-10-26T09:13:41;9.33;;;3.20;;
31482;SDS011;18103;52.246;8.052;2022-10-26T09:16:31;10.10;;;3.33;;
31482;SDS011;18103;52.246;8.052;2022-10-26T09:24:21;7.07;;;3.87;;
31482;SDS011;18103;52.246;8.052;2022-10-26T09:27:23;8.73;;;3.30;;
31482;SDS011;18103;52.246;8.052;2022-10-26T09:29:52;10.00;;;3.27;;
31482;SDS011;18103;52.246;8.052;2022-10-26T09:32:22;9.60;;;3.40;;
31482;SDS011;18103;52.246;8.052;2022-10-26T09:34:51;5.40;;;2.40;;
31482;SDS011;18103;52.246;8.052;2022-10-26T09:37:24;4.03;;;2.10;;
31482;SDS011;18103;52.246;8.052;2022-10-26T09:39:57;5.87;;;2.20;;
31482;SDS011;18103;52.246;8.052;2022-10-26T09:42:38;7.23;;;2.20;;
31482;SDS011;18103;52.246;8.052;2022-10-26T09:47:47;3.83;;;2.70;;
31482;SDS011;18103;52.246;8.052;2022-10-26T09:52:53;6.17;;;1.77;;
31482;SDS011;18103;52.246;8.052;2022-10-26T09:55:18;6.77;;;2.20;;
31482;SDS011;18103;52.246;8.052;2022-10-26T09:57:45;5.17;;;1.37;;
31482;SDS011;18103;52.246;8.052;2022-10-26T10:00:15;2.50;;;1.63;;
31482;SDS011;18103;52.246;8.052;2022-10-26T10:02:42;5.50;;;1.77;;
31482;SDS011;18103;52.246;8.052;2022-10-26T10:05:30;2.73;;;1.00;;
31482;SDS011;18103;52.246;8.052;2022-10-26T10:11:19;5.67;;;1.53;;
31482;SDS011;18103;52.246;8.052;2022-10-26T10:13:39;3.57;;;1.23;;
31482;SDS011;18103;52.246;8.052;2022-10-26T10:16:11;3.13;;;1.33;;
31482;SDS011;18103;52.246;8.052;2022-10-26T10:18:43;5.30;;;1.07;;
31482;SDS011;18103;52.246;8.052;2022-10-26T10:21:17;4.77;;;1.20;;
31482;SDS011;18103;52.246;8.052;2022-10-26T10:23:47;8.40;;;1.43;;
31482;SDS011;18103;52.246;8.052;2022-10-26T10:26:16;3.43;;;1.40;;
31482;SDS011;18103;52.246;8.052;2022-10-26T10:28:41;5.23;;;1.03;;
31482;SDS011;18103;52.246;8.052;2022-10-26T10:31:20;6.03;;;0.80;;
31482;SDS011;18103;52.246;8.052;2022-10-26T10:33:50;1.90;;;0.60;;
31482;SDS011;18103;52.246;8.052;2022-10-26T10:36:17;9.23;;;1.13;;
31482;SDS011;18103;52.246;8.052;2022-10-26T10:38:46;3.43;;;0.90;;
31482;SDS011;18103;52.246;8.052;2022-10-26T10:41:17;3.70;;;0.70;;
31482;SDS011;18103;52.246;8.052;2022-10-26T10:43:49;4.53;;;1.27;;
31482;SDS011;18103;52.246;8.052;2022-10-26T10:46:18;2.17;;;0.97;;
31482;SDS011;18103;52.246;8.052;2022-10-26T10:48:46;5.43;;;1.20;;
31482;SDS011;18103;52.246;8.052;2022-10-26T10:51:35;5.47;;;1.20;;
31482;SDS011;18103;52.246;8.052;2022-10-26T10:54:04;6.57;;;1.00;;
31482;SDS011;18103;52.246;8.052;2022-10-26T10:56:36;8.20;;;1.80;;
31482;SDS011;18103;52.246;8.052;2022-10-26T11:07:35;1.33;;;0.73;;
31482;SDS011;18103;52.246;8.052;2022-10-26T11:10:10;3.53;;;1.03;;
31482;SDS011;18103;52.246;8.052;2022-10-26T11:12:43;3.67;;;0.80;;
31482;SDS011;18103;52.246;8.052;2022-10-26T11:15:16;3.87;;;1.10;;
31482;SDS011;18103;52.246;8.052;2022-10-26T11:18:02;2.97;;;1.10;;
31482;SDS011;18103;52.246;8.052;2022-10-26T11:20:38;3.27;;;1.17;;
31482;SDS011;18103;52.246;8.052;2022-10-26T11:23:11;2.97;;;1.43;;
31482;SDS011;18103;52.246;8.052;2022-10-26T11:26:03;1.53;;;0.90;;
31482;SDS011;18103;52.246;8.052;2022-10-26T11:31:24;2.93;;;1.13;;
31482;SDS011;18103;52.246;8.052;2022-10-26T11:34:02;6.23;;;1.30;;
31482;SDS011;18103;52.246;8.052;2022-10-26T11:36:56;4.63;;;1.37;;
31482;SDS011;18103;52.246;8.052;2022-10-26T11:39:30;5.07;;;1.50;;
31482;SDS011;18103;52.246;8.052;2022-10-26T11:42:10;2.90;;;1.17;;
31482;SDS011;18103;52.246;8.052;2022-10-26T11:44:49;6.93;;;1.77;;
31482;SDS011;18103;52.246;8.052;2022-10-26T11:47:31;4.27;;;1.73;;
31482;SDS011;18103;52.246;8.052;2022-10-26T11:52:41;2.63;;;1.30;;
31482;SDS011;18103;52.246;8.052;2022-10-26T11:55:10;4.40;;;1.10;;
31482;SDS011;18103;52.246;8.052;2022-10-26T11:57:36;5.77;;;1.50;;
31482;SDS011;18103;52.246;8.052;2022-10-26T12:00:03;5.53;;;1.10;;
31482;SDS011;18103;52.246;8.052;2022-10-26T12:02:31;6.50;;;1.60;;
31482;SDS011;18103;52.246;8.052;2022-10-26T12:07:43;8.00;;;1.40;;
31482;SDS011;18103;52.246;8.052;2022-10-26T12:15:35;3.83;;;1.60;;
31482;SDS011;18103;52.246;8.052;2022-10-26T12:18:10;5.50;;;1.53;;
31482;SDS011;18103;52.246;8.052;2022-10-26T12:20:56;4.33;;;1.37;;
31482;SDS011;18103;52.246;8.052;2022-10-26T12:23:27;2.40;;;1.20;;
31482;SDS011;18103;52.246;8.052;2022-10-26T12:28:48;11.10;;;1.90;;
31482;SDS011;18103;52.246;8.052;2022-10-26T12:33:59;4.57;;;1.47;;
31482;SDS011;18103;52.246;8.052;2022-10-26T12:39:31;5.53;;;1.43;;
31482;SDS011;18103;52.246;8.052;2022-10-26T12:47:07;2.80;;;1.43;;
31482;SDS011;18103;52.246;8.052;2022-10-26T12:52:48;8.97;;;1.80;;
31482;SDS011;18103;52.246;8.052;2022-10-26T12:55:24;22.13;;;2.50;;
31482;SDS011;18103;52.246;8.052;2022-10-26T13:00:40;4.90;;;1.97;;
31482;SDS011;18103;52.246;8.052;2022-10-26T13:03:19;5.47;;;2.10;;
31482;SDS011;18103;52.246;8.052;2022-10-26T13:09:15;9.27;;;2.67;;
31482;SDS011;18103;52.246;8.052;2022-10-26T13:11:45;7.00;;;2.43;;
31482;SDS011;18103;52.246;8.052;2022-10-26T13:14:17;8.70;;;2.27;;
31482;SDS011;18103;52.246;8.052;2022-10-26T13:16:46;5.40;;;2.07;;
31482;SDS011;18103;52.246;8.052;2022-10-26T13:19:25;6.37;;;2.40;;
31482;SDS011;18103;52.246;8.052;2022-10-26T13:22:14;4.17;;;1.53;;
31482;SDS011;18103;52.246;8.052;2022-10-26T13:24:50;11.00;;;1.70;;
31482;SDS011;18103;52.246;8.052;2022-10-26T13:32:26;6.60;;;2.63;;
31482;SDS011;18103;52.246;8.052;2022-10-26T13:34:53;5.40;;;2.80;;
31482;SDS011;18103;52.246;8.052;2022-10-26T13:37:24;11.97;;;1.97;;
31482;SDS011;18103;52.246;8.052;2022-10-26T13:39:53;2.97;;;1.43;;
31482;SDS011;18103;52.246;8.052;2022-10-26T13:42:32;6.67;;;1.97;;
31482;SDS011;18103;52.246;8.052;2022-10-26T13:45:11;4.50;;;1.60;;
31482;SDS011;18103;52.246;8.052;2022-10-26T13:48:04;3.87;;;2.07;;
31482;SDS011;18103;52.246;8.052;2022-10-26T13:50:46;4.50;;;1.80;;
31482;SDS011;18103;52.246;8.052;2022-10-26T13:53:17;1.70;;;1.13;;
31482;SDS011;18103;52.246;8.052;2022-10-26T13:56:01;2.97;;;0.90;;
31482;SDS011;18103;52.246;8.052;2022-10-26T13:58:32;6.87;;;1.40;;
31482;SDS011;18103;52.246;8.052;2022-10-26T14:01:01;6.33;;;1.40;;
31482;SDS011;18103;52.246;8.052;2022-10-26T14:03:38;9.03;;;1.40;;
31482;SDS011;18103;52.246;8.052;2022-10-26T14:06:27;6.30;;;1.93;;
31482;SDS011;18103;52.246;8.052;2022-10-26T14:08:51;2.43;;;1.17;;
31482;SDS011;18103;52.246;8.052;2022-10-26T14:11:20;5.80;;;1.60;;
31482;SDS011;18103;52.246;8.052;2022-10-26T14:13:51;3.23;;;1.67;;
31482;SDS011;18103;52.246;8.052;2022-10-26T14:16:17;12.60;;;1.67;;
31482;SDS011;18103;52.246;8.052;2022-10-26T14:18:44;6.77;;;1.60;;
31482;SDS011;18103;52.246;8.052;2022-10-26T14:21:14;3.73;;;1.40;;
31482;SDS011;18103;52.246;8.052;2022-10-26T14:23:45;3.40;;;1.50;;
31482;SDS011;18103;52.246;8.052;2022-10-26T14:26:27;3.63;;;1.87;;
31482;SDS011;18103;52.246;8.052;2022-10-26T14:28:58;11.50;;;2.13;;
31482;SDS011;18103;52.246;8.052;2022-10-26T14:33:52;5.13;;;1.63;;
31482;SDS011;18103;52.246;8.052;2022-10-26T14:36:19;7.67;;;1.67;;
31482;SDS011;18103;52.246;8.052;2022-10-26T14:38:49;7.37;;;1.77;;
31482;SDS011;18103;52.246;8.052;2022-10-26T14:41:21;5.77;;;1.80;;
31482;SDS011;18103;52.246;8.052;2022-10-26T14:43:54;6.07;;;1.83;;
31482;SDS011;18103;52.246;8.052;2022-10-26T14:46:21;4.57;;;1.50;;
31482;SDS011;18103;52.246;8.052;2022-10-26T14:48:54;5.37;;;1.70;;
31482;SDS011;18103;52.246;8.052;2022-10-26T14:51:28;7.13;;;1.73;;
31482;SDS011;18103;52.246;8.052;2022-10-26T14:53:58;7.13;;;1.40;;
31482;SDS011;18103;52.246;8.052;2022-10-26T14:58:53;5.33;;;1.90;;
31482;SDS011;18103;52.246;8.052;2022-10-26T15:01:23;9.77;;;2.20;;
31482;SDS011;18103;52.246;8.052;2022-10-26T15:04:01;8.03;;;1.93;;
31482;SDS011;18103;52.246;8.052;2022-10-26T15:06:38;8.03;;;1.40;;
31482;SDS011;18103;52.246;8.052;2022-10-26T15:09:05;6.17;;;2.10;;
31482;SDS011;18103;52.246;8.052;2022-10-26T15:11:31;4.10;;;2.00;;
31482;SDS011;18103;52.246;8.052;2022-10-26T15:13:58;8.73;;;2.03;;
31482;SDS011;18103;52.246;8.052;2022-10-26T15:16:28;5.60;;;1.80;;
31482;SDS011;18103;52.246;8.052;2022-10-26T15:23:54;10.53;;;2.57;;
31482;SDS011;18103;52.246;8.052;2022-10-26T15:26:21;7.90;;;1.70;;
31482;SDS011;18103;52.246;8.052;2022-10-26T15:28:47;5.23;;;2.07;;
31482;SDS011;18103;52.246;8.052;2022-10-26T15:33:43;11.23;;;2.00;;
31482;SDS011;18103;52.246;8.052;2022-10-26T15:36:27;3.10;;;1.60;;
31482;SDS011;18103;52.246;8.052;2022-10-26T15:38:57;6.33;;;1.80;;
31482;SDS011;18103;52.246;8.052;2022-10-26T15:43:52;8.90;;;2.03;;
31482;SDS011;18103;52.246;8.052;2022-10-26T15:46:22;9.37;;;1.67;;
31482;SDS011;18103;52.246;8.052;2022-10-26T15:48:56;7.37;;;1.80;;
31482;SDS011;18103;52.246;8.052;2022-10-26T15:51:23;5.10;;;1.77;;
31482;SDS011;18103;52.246;8.052;2022-10-26T15:53:49;4.20;;;2.00;;
31482;SDS011;18103;52.246;8.052;2022-10-26T15:56:19;7.67;;;2.10;;
31482;SDS011;18103;52.246;8.052;2022-10-26T15:58:47;7.53;;;2.10;;
31482;SDS011;18103;52.246;8.052;2022-10-26T16:01:14;5.07;;;2.37;;
31482;SDS011;18103;52.246;8.052;2022-10-26T16:03:41;9.77;;;2.23;;
31482;SDS011;18103;52.246;8.052;2022-10-26T16:06:07;3.60;;;1.87;;
31482;SDS011;18103;52.246;8.052;2022-10-26T16:08:39;7.03;;;1.93;;
31482;SDS011;18103;52.246;8.052;2022-10-26T16:11:05;6.27;;;2.30;;
31482;SDS011;18103;52.246;8.052;2022-10-26T16:13:33;6.73;;;2.20;;
31482;SDS011;18103;52.246;8.052;2022-10-26T16:15:58;8.93;;;1.80;;
31482;SDS011;18103;52.246;8.052;2022-10-26T16:18:24;7.37;;;2.57;;
31482;SDS011;18103;52.246;8.052;2022-10-26T16:20:50;7.20;;;2.07;;
31482;SDS011;18103;52.246;8.052;2022-10-26T16:23:15;2.63;;;1.93;;
31482;SDS011;18103;52.246;8.052;2022-10-26T16:25:44;5.87;;;2.33;;
31482;SDS011;18103;52.246;8.052;2022-10-26T16:28:11;11.67;;;2.90;;
31482;SDS011;18103;52.246;8.052;2022-10-26T16:30:38;12.83;;;3.40;;
31482;SDS011;18103;52.246;8.052;2022-10-26T16:33:04;6.97;;;2.07;;
31482;SDS011;18103;52.246;8.052;2022-10-26T16:35:29;10.33;;;2.60;;
31482;SDS011;18103;52.246;8.052;2022-10-26T16:37:55;5.00;;;2.10;;
31482;SDS011;18103;52.246;8.052;2022-10-26T16:40:20;11.27;;;1.97;;
31482;SDS011;18103;52.246;8.052;2022-10-26T16:42:45;6.00;;;2.03;;
31482;SDS011;18103;52.246;8.052;2022-10-26T16:45:11;7.77;;;2.50;;
31482;SDS011;18103;52.246;8.052;2022-10-26T16:47:41;9.67;;;2.43;;
31482;SDS011;18103;52.246;8.052;2022-10-26T16:50:10;7.20;;;1.73;;
31482;SDS011;18103;52.246;8.052;2022-10-26T16:52:37;9.30;;;2.00;;
31482;SDS011;18103;52.246;8.052;2022-10-26T16:55:03;6.33;;;2.47;;
31482;SDS011;18103;52.246;8.052;2022-10-26T16:57:30;7.73;;;1.97;;
31482;SDS011;18103;52.246;8.052;2022-10-26T16:59:58;7.53;;;2.40;;
31482;SDS011;18103;52.246;8.052;2022-10-26T17:02:24;5.73;;;2.27;;